ENNO

Notodden Airport

Norway
METAR ENNO 131750Z VRB02KT 9999 OVC018 M07/M08 Q1035
Observed Flight Rules
Dec-13 @ 17:50 UTC (7 hours ago) Marginal Visual Flight Rules
Wind Visibility Clouds
Variable at 2 knots 10,000+ meters
  • Overcast at 1,800' AGL
Temperatures Readings
Current -7°C / 19°F
Dewpoint -8°C / 18°F
Humidity 93%
Altimeter 30.56" Hg
Pressure 1035 hPa
Elevation 19
METAR ENNO 131750Z VRB02KT 9999 OVC018 M07/M08 Q1035
Observed Flight Rules
Dec-13 @ 17:50 UTC
(7 hours ago)
MVFR
Wind Visibility
Variable at 2 knots 10,000+ meters
Clouds
  • Overcast at 1,800' AGL
Temperature Dewpoint
-7°C / 19°F -8°C / 18°F
Humidity Altimeter Pressure
93% 30.56" Hg 1035 hPa